createdAt,value
2022-11-28T00:04:45.195Z,0
2022-11-28T00:09:45.083Z,0
2022-11-28T00:14:45.213Z,0
2022-11-28T00:19:45.167Z,0
2022-11-28T00:24:45.252Z,0
2022-11-28T00:29:45.106Z,0
2022-11-28T00:34:45.105Z,0
2022-11-28T00:39:45.090Z,0
2022-11-28T00:44:45.119Z,0
2022-11-28T00:49:45.077Z,0
2022-11-28T00:54:45.093Z,0
2022-11-28T00:59:45.093Z,0
2022-11-28T01:04:45.129Z,0
2022-11-28T01:09:45.383Z,0
2022-11-28T01:14:45.134Z,0
2022-11-28T01:19:45.602Z,0
2022-11-28T01:24:45.161Z,0
2022-11-28T01:29:45.108Z,0
2022-11-28T01:34:45.175Z,0
2022-11-28T01:39:45.091Z,0
2022-11-28T01:44:45.079Z,0
2022-11-28T01:49:45.141Z,0
2022-11-28T01:54:45.070Z,0
2022-11-28T01:59:45.145Z,0
2022-11-28T02:04:45.111Z,0
2022-11-28T02:09:45.117Z,0
2022-11-28T02:14:45.212Z,0
2022-11-28T02:19:45.089Z,0
2022-11-28T02:24:45.169Z,0
2022-11-28T02:29:45.211Z,0
2022-11-28T02:34:46.985Z,0
2022-11-28T02:39:45.119Z,0
2022-11-28T02:44:45.295Z,0
2022-11-28T02:49:45.064Z,0
2022-11-28T02:54:45.116Z,0
2022-11-28T02:59:45.148Z,0
2022-11-28T03:04:45.241Z,0
2022-11-28T03:09:45.083Z,0
2022-11-28T03:14:45.171Z,0
2022-11-28T03:19:45.117Z,0
2022-11-28T03:24:45.121Z,0
2022-11-28T03:29:45.113Z,0
2022-11-28T03:34:45.268Z,0
2022-11-28T03:39:45.082Z,0
2022-11-28T03:44:45.234Z,0
2022-11-28T03:49:45.110Z,0
2022-11-28T03:54:45.224Z,0
2022-11-28T03:59:45.120Z,0
2022-11-28T04:04:45.347Z,0
2022-11-28T04:09:45.110Z,0
2022-11-28T04:14:45.248Z,0
2022-11-28T04:19:45.132Z,0
2022-11-28T04:24:45.124Z,0
2022-11-28T04:29:45.096Z,0
2022-11-28T04:34:45.261Z,0
2022-11-28T04:39:45.123Z,0
2022-11-28T04:44:45.224Z,0
2022-11-28T04:49:45.105Z,0
2022-11-28T04:54:45.224Z,0
2022-11-28T04:59:45.188Z,0
2022-11-28T05:04:45.349Z,0
2022-11-28T05:09:45.115Z,0
2022-11-28T05:14:45.411Z,0
2022-11-28T05:19:45.164Z,0
2022-11-28T05:24:45.337Z,0
2022-11-28T05:29:49.506Z,0
2022-11-28T05:34:45.183Z,0
2022-11-28T05:39:45.362Z,0
2022-11-28T05:44:45.073Z,0
2022-11-28T05:49:45.267Z,0
2022-11-28T05:54:45.200Z,0
2022-11-28T05:59:45.455Z,0
2022-11-28T06:04:45.319Z,0
2022-11-28T06:09:45.375Z,0
2022-11-28T06:14:45.117Z,0
2022-11-28T06:19:45.217Z,0
2022-11-28T06:24:45.183Z,0
2022-11-28T06:29:45.354Z,0
2022-11-28T06:34:45.145Z,256
2022-11-28T06:39:45.220Z,259
2022-11-28T06:44:45.110Z,257
2022-11-28T06:49:45.259Z,259
2022-11-28T06:54:45.119Z,264
2022-11-28T06:59:45.280Z,271
2022-11-28T07:04:45.145Z,281
2022-11-28T07:09:45.287Z,290
2022-11-28T07:14:45.129Z,299
2022-11-28T07:19:47.218Z,303
2022-11-28T07:24:45.104Z,308
2022-11-28T07:29:45.282Z,316
2022-11-28T07:34:48.962Z,327
2022-11-28T07:39:45.337Z,336
2022-11-28T07:44:45.097Z,347
2022-11-28T07:49:45.319Z,358
2022-11-28T07:54:45.199Z,360
2022-11-28T07:59:45.376Z,363
2022-11-28T08:04:49.525Z,365
2022-11-28T08:09:45.586Z,370
2022-11-28T08:14:45.271Z,384
2022-11-28T08:19:45.134Z,404
2022-11-28T08:24:45.317Z,431
2022-11-28T08:29:48.121Z,445
2022-11-28T08:34:45.103Z,456
2022-11-28T08:39:45.313Z,471
2022-11-28T08:44:45.225Z,485
2022-11-28T08:49:45.381Z,498
2022-11-28T08:54:45.346Z,513
2022-11-28T08:59:45.496Z,523
2022-11-28T09:04:45.271Z,550
2022-11-28T09:09:45.321Z,589
2022-11-28T09:14:45.153Z,623
2022-11-28T09:19:45.256Z,640
2022-11-28T09:24:45.112Z,666
2022-11-28T09:29:45.380Z,687
2022-11-28T09:34:45.173Z,689
2022-11-28T09:40:11.310Z,718
2022-11-28T09:44:45.174Z,748
2022-11-28T09:49:45.252Z,771
2022-11-28T09:54:45.185Z,744
2022-11-28T09:59:45.618Z,721
2022-11-28T10:04:45.234Z,704
2022-11-28T10:09:45.466Z,689
2022-11-28T10:14:45.208Z,649
2022-11-28T10:19:54.125Z,642
2022-11-28T10:24:45.159Z,653
2022-11-28T10:29:45.398Z,667
2022-11-28T10:34:45.179Z,683
2022-11-28T10:39:45.449Z,680
2022-11-28T10:44:45.145Z,683
2022-11-28T10:49:45.355Z,681
2022-11-28T10:54:45.385Z,665
2022-11-28T10:59:45.407Z,663
2022-11-28T11:04:45.180Z,660
2022-11-28T11:09:45.621Z,649
2022-11-28T11:14:45.187Z,618
2022-11-28T11:19:45.437Z,622
2022-11-28T11:24:45.248Z,626
2022-11-28T11:29:46.096Z,640
2022-11-28T11:34:45.155Z,676
2022-11-28T11:39:45.255Z,725
2022-11-28T11:44:45.159Z,747
2022-11-28T11:49:45.409Z,761
2022-11-28T11:54:45.276Z,791
2022-11-28T11:59:45.349Z,778
2022-11-28T12:04:51.203Z,760
2022-11-28T12:09:45.321Z,745
2022-11-28T12:14:45.264Z,707
2022-11-28T12:19:45.169Z,689
2022-11-28T12:24:45.193Z,659
2022-11-28T12:29:45.389Z,643
2022-11-28T12:34:45.175Z,619
2022-11-28T12:39:45.476Z,579
2022-11-28T12:44:45.182Z,551
2022-11-28T12:49:45.492Z,538
2022-11-28T12:54:45.234Z,528
2022-11-28T12:59:45.852Z,521
2022-11-28T13:04:45.543Z,511
2022-11-28T13:09:45.490Z,506
2022-11-28T13:14:45.537Z,509
2022-11-28T13:19:45.281Z,499
2022-11-28T13:24:45.182Z,465
2022-11-28T13:29:45.270Z,432
2022-11-28T13:34:45.411Z,414
2022-11-28T13:39:45.193Z,406
2022-11-28T13:44:45.416Z,410
2022-11-28T13:49:45.218Z,417
2022-11-28T13:54:45.699Z,410
2022-11-28T13:59:45.354Z,394
2022-11-28T14:04:45.542Z,376
2022-11-28T14:09:45.412Z,354
2022-11-28T14:14:45.482Z,344
2022-11-28T14:19:45.216Z,339
2022-11-28T14:24:45.749Z,344
2022-11-28T14:29:45.143Z,344
2022-11-28T14:34:45.408Z,341
2022-11-28T14:39:45.192Z,328
2022-11-28T14:44:45.538Z,318
2022-11-28T14:49:45.248Z,305
2022-11-28T14:54:45.423Z,297
2022-11-28T14:59:45.238Z,286
2022-11-28T15:04:45.441Z,276
2022-11-28T15:09:45.237Z,271
2022-11-28T15:14:45.531Z,264
2022-11-28T15:19:45.177Z,260
2022-11-28T15:24:45.310Z,257
2022-11-28T15:29:45.161Z,0
2022-11-28T15:34:45.329Z,0
2022-11-28T15:39:45.194Z,0
2022-11-28T15:44:45.487Z,0
2022-11-28T15:49:45.231Z,0
2022-11-28T15:54:45.383Z,0
2022-11-28T15:59:45.387Z,0
2022-11-28T16:04:45.508Z,0
2022-11-28T16:09:45.194Z,0
2022-11-28T16:14:45.578Z,0
2022-11-28T16:19:45.340Z,0
2022-11-28T16:24:45.449Z,0
2022-11-28T16:29:45.317Z,0
2022-11-28T16:34:45.310Z,0
2022-11-28T16:39:45.334Z,0
2022-11-28T16:44:45.296Z,0
2022-11-28T16:49:45.446Z,0
2022-11-28T16:54:45.180Z,0
2022-11-28T16:59:45.447Z,0
2022-11-28T17:04:45.262Z,0
2022-11-28T17:09:45.599Z,0
2022-11-28T17:14:45.230Z,0
2022-11-28T17:19:45.328Z,0
2022-11-28T17:24:45.165Z,0
2022-11-28T17:29:45.401Z,0
2022-11-28T17:34:45.376Z,0
2022-11-28T17:39:45.255Z,0
2022-11-28T17:44:45.394Z,0
2022-11-28T17:49:46.513Z,0
2022-11-28T17:54:45.191Z,0
2022-11-28T17:59:45.470Z,0
2022-11-28T18:04:45.367Z,0
2022-11-28T18:09:45.363Z,0
2022-11-28T18:14:45.186Z,0
2022-11-28T18:19:45.411Z,0
2022-11-28T18:24:45.224Z,0
2022-11-28T18:29:45.460Z,0
2022-11-28T18:34:45.236Z,0
2022-11-28T18:39:45.355Z,0
2022-11-28T18:44:45.183Z,0
2022-11-28T18:49:45.260Z,0
2022-11-28T18:54:45.213Z,0
2022-11-28T18:59:51.488Z,0
2022-11-28T19:04:45.216Z,0
2022-11-28T19:09:45.489Z,0
2022-11-28T19:14:45.215Z,0
2022-11-28T19:19:45.524Z,0
2022-11-28T19:24:45.220Z,0
2022-11-28T19:29:45.337Z,0
2022-11-28T19:34:45.362Z,0
2022-11-28T19:39:45.459Z,0
2022-11-28T19:44:45.170Z,0
2022-11-28T19:49:45.562Z,0
2022-11-28T19:54:45.171Z,0
2022-11-28T19:59:45.406Z,0
2022-11-28T20:04:45.227Z,0
2022-11-28T20:09:45.603Z,0
2022-11-28T20:14:45.180Z,0
2022-11-28T20:19:45.468Z,0
2022-11-28T20:24:45.199Z,0
2022-11-28T20:29:45.331Z,0
2022-11-28T20:34:45.198Z,0
2022-11-28T20:39:45.464Z,0
2022-11-28T20:44:45.182Z,0
2022-11-28T20:49:45.340Z,0
2022-11-28T20:54:45.202Z,0
2022-11-28T20:59:45.533Z,0
2022-11-28T21:04:45.229Z,0
2022-11-28T21:09:45.428Z,0
2022-11-28T21:14:45.265Z,0
2022-11-28T21:19:45.527Z,0
2022-11-28T21:24:45.214Z,0
2022-11-28T21:29:45.465Z,0
2022-11-28T21:34:45.186Z,0
2022-11-28T21:39:45.457Z,0
2022-11-28T21:44:45.223Z,0
2022-11-28T21:49:45.390Z,0
2022-11-28T21:54:45.211Z,0
2022-11-28T21:59:45.606Z,0
2022-11-28T22:04:45.388Z,0
2022-11-28T22:09:45.217Z,0
2022-11-28T22:14:45.605Z,0
2022-11-28T22:19:45.228Z,0
2022-11-28T22:24:45.326Z,0
2022-11-28T22:29:45.294Z,0
2022-11-28T22:34:45.591Z,0
2022-11-28T22:39:45.228Z,0
2022-11-28T22:44:45.406Z,0
2022-11-28T22:49:45.255Z,0
2022-11-28T22:54:45.471Z,0
2022-11-28T22:59:45.324Z,0
2022-11-28T23:04:45.465Z,0
2022-11-28T23:09:45.249Z,0
2022-11-28T23:14:45.488Z,0
2022-11-28T23:19:45.261Z,0
2022-11-28T23:24:45.493Z,0
2022-11-28T23:29:45.234Z,0
2022-11-28T23:34:45.379Z,0
2022-11-28T23:39:45.299Z,0
2022-11-28T23:44:45.537Z,0
2022-11-28T23:49:45.241Z,0
2022-11-28T23:54:45.534Z,0
2022-11-28T23:59:45.425Z,0
